createdAt,value
2023-04-22T00:00:12.734Z,97239.72
2023-04-22T00:02:39.476Z,97235.25
2023-04-22T00:05:06.366Z,97235.03
2023-04-22T00:07:33.169Z,97234.25
2023-04-22T00:09:59.761Z,97228.75
2023-04-22T00:12:26.358Z,97230.41
2023-04-22T00:14:53.184Z,97232.44
2023-04-22T00:17:19.798Z,97227.75
2023-04-22T00:19:47.291Z,97229.81
2023-04-22T00:22:13.894Z,97228.19
2023-04-22T00:24:41.514Z,97220.47
2023-04-22T00:27:08.167Z,97219.63
2023-04-22T00:29:34.866Z,97220.66
2023-04-22T00:32:01.467Z,97214.16
2023-04-22T00:34:28.059Z,97216.41
2023-04-22T00:36:54.662Z,97215.16
2023-04-22T00:39:21.263Z,97219.63
2023-04-22T00:41:47.857Z,97218.19
2023-04-22T00:44:14.457Z,97208.63
2023-04-22T00:46:41.150Z,97205.44
2023-04-22T00:49:07.945Z,97211.31
2023-04-22T00:51:34.669Z,97207.47
2023-04-22T00:54:01.268Z,97210.09
2023-04-22T00:56:27.831Z,97212.34
2023-04-22T00:58:54.529Z,97207.47
2023-04-22T01:01:21.150Z,97206.44
2023-04-22T01:03:47.992Z,97207.66
2023-04-22T01:06:14.645Z,97206.22
2023-04-22T01:08:41.252Z,97208.47
2023-04-22T01:11:07.885Z,97200.34
2023-04-22T01:13:34.477Z,97205.41
2023-04-22T01:16:01.085Z,97204.63
2023-04-22T01:18:28.665Z,97208.25
2023-04-22T01:20:55.250Z,97213.28
2023-04-22T01:23:21.935Z,97210.47
2023-04-22T01:25:48.557Z,97212.09
2023-04-22T01:28:15.152Z,97214.31
2023-04-22T01:30:41.739Z,97209.75
2023-04-22T01:33:08.354Z,97215.38
2023-04-22T01:35:35.009Z,97210.91
2023-04-22T01:38:01.596Z,97216.59
2023-04-22T01:40:28.324Z,97214.97
2023-04-22T01:42:54.909Z,97211.97
2023-04-22T01:45:21.503Z,97208.63
2023-04-22T01:47:48.159Z,97206.44
2023-04-22T01:50:14.801Z,97209.84
2023-04-22T01:52:41.371Z,97203.31
2023-04-22T01:55:07.984Z,97201.25
2023-04-22T01:57:34.596Z,97204.25
2023-04-22T02:00:01.237Z,97204.91
2023-04-22T02:02:27.944Z,97198.88
2023-04-22T02:04:54.618Z,97201.28
2023-04-22T02:07:21.274Z,97199.44
2023-04-22T02:09:50.218Z,97200.03
2023-04-22T02:12:17.493Z,97201.63
2023-04-22T02:14:44.069Z,97198.75
2023-04-22T02:17:10.656Z,97192.81
2023-04-22T02:19:37.471Z,97196.34
2023-04-22T02:22:04.485Z,97196.13
2023-04-22T02:24:31.099Z,97203.25
2023-04-22T02:27:00.352Z,97193.91
2023-04-22T02:29:26.938Z,97194.41
2023-04-22T02:31:53.603Z,97196.50
2023-04-22T02:34:20.296Z,97197.94
2023-04-22T02:36:46.922Z,97192.97
2023-04-22T02:39:13.475Z,97194.28
2023-04-22T02:41:40.058Z,97195.22
2023-04-22T02:44:06.728Z,97190.34
2023-04-22T02:46:33.495Z,97192.31
2023-04-22T02:49:00.221Z,97198.75
2023-04-22T02:51:26.836Z,97202.28
2023-04-22T02:53:53.498Z,97202.78
2023-04-22T02:56:20.140Z,97195.03
2023-04-22T02:58:46.711Z,97198.06
2023-04-22T03:01:13.343Z,97194.41
2023-04-22T03:03:40.280Z,97199.91
2023-04-22T03:06:07.191Z,97196.19
2023-04-22T03:08:33.940Z,97195.31
2023-04-22T03:11:00.726Z,97197.47
2023-04-22T03:13:27.324Z,97196.56
2023-04-22T03:15:53.907Z,97197.94
2023-04-22T03:18:20.481Z,97193.91
2023-04-22T03:20:47.079Z,97198.06
2023-04-22T03:23:13.632Z,97199.25
2023-04-22T03:25:40.222Z,97192.38
2023-04-22T03:28:06.813Z,97196.31
2023-04-22T03:30:33.421Z,97195.78
2023-04-22T03:33:00.022Z,97195.56
2023-04-22T03:35:26.638Z,97193.00
2023-04-22T03:37:53.484Z,97193.16
2023-04-22T03:40:20.081Z,97191.53
2023-04-22T03:42:46.802Z,97190.81
2023-04-22T03:45:13.435Z,97199.63
2023-04-22T03:47:40.080Z,97191.78
2023-04-22T03:50:06.729Z,97202.44
2023-04-22T03:52:33.329Z,97205.06
2023-04-22T03:54:59.902Z,97199.25
2023-04-22T03:57:26.470Z,97191.66
2023-04-22T03:59:53.030Z,97200.25
2023-04-22T04:02:19.738Z,97193.88
2023-04-22T04:04:46.971Z,97199.25
2023-04-22T04:07:13.874Z,97209.31
2023-04-22T04:09:40.690Z,97197.75
2023-04-22T04:12:07.567Z,97198.31
2023-04-22T04:14:34.168Z,97195.13
2023-04-22T04:17:00.716Z,97200.53
2023-04-22T04:19:27.413Z,97200.44
2023-04-22T04:21:54.037Z,97204.00
2023-04-22T04:24:20.646Z,97205.56
2023-04-22T04:26:47.366Z,97206.31
2023-04-22T04:29:14.141Z,97207.78
2023-04-22T04:31:40.814Z,97210.69
2023-04-22T04:34:07.432Z,97203.69
2023-04-22T04:36:34.007Z,97206.28
2023-04-22T04:39:00.653Z,97204.50
2023-04-22T04:41:27.253Z,97211.94
2023-04-22T04:43:53.880Z,97212.44
2023-04-22T04:46:20.454Z,97215.16
2023-04-22T04:48:47.123Z,97217.09
2023-04-22T04:51:13.687Z,97217.94
2023-04-22T04:53:40.319Z,97224.25
2023-04-22T04:56:06.926Z,97223.22
2023-04-22T04:58:33.516Z,97226.75
2023-04-22T05:01:00.129Z,97224.16
2023-04-22T05:03:27.043Z,97228.75
2023-04-22T05:05:53.798Z,97230.16
2023-04-22T05:08:20.454Z,97224.56
2023-04-22T05:10:47.074Z,97231.03
2023-04-22T05:13:13.730Z,97229.22
2023-04-22T05:15:40.394Z,97227.47
2023-04-22T05:18:07.103Z,97234.63
2023-04-22T05:20:35.886Z,97226.97
2023-04-22T05:23:02.820Z,97231.59
2023-04-22T05:25:29.444Z,97229.59
2023-04-22T05:27:56.011Z,97219.41
2023-04-22T05:30:22.626Z,97229.38
2023-04-22T05:32:49.304Z,97223.28
2023-04-22T05:35:15.925Z,97215.53
2023-04-22T05:37:44.576Z,97220.38
2023-04-22T05:40:11.150Z,97226.44
2023-04-22T05:42:37.764Z,97221.25
2023-04-22T05:45:04.633Z,97209.94
2023-04-22T05:47:31.291Z,97222.47
2023-04-22T05:49:57.883Z,97224.06
2023-04-22T05:52:24.436Z,97224.34
2023-04-22T05:54:51.030Z,97225.00
2023-04-22T05:57:17.588Z,97219.00
2023-04-22T05:59:44.296Z,97220.94
2023-04-22T06:02:12.107Z,97218.06
2023-04-22T06:04:39.335Z,97217.00
2023-04-22T06:07:06.180Z,97214.69
2023-04-22T06:09:32.765Z,97210.41
2023-04-22T06:11:59.362Z,97213.81
2023-04-22T06:14:25.993Z,97213.22
2023-04-22T06:16:52.598Z,97209.41
2023-04-22T06:19:19.215Z,97214.38
2023-04-22T06:21:47.710Z,97211.03
2023-04-22T06:24:14.289Z,97214.38
2023-04-22T06:26:40.888Z,97221.38
2023-04-22T06:29:07.524Z,97216.41
2023-04-22T06:31:34.168Z,97215.47
2023-04-22T06:34:00.803Z,97216.50
2023-04-22T06:36:29.737Z,97218.88
2023-04-22T06:38:57.150Z,97218.13
2023-04-22T06:41:23.720Z,97224.03
2023-04-22T06:43:50.378Z,97216.34
2023-04-22T06:46:17.004Z,97221.19
2023-04-22T06:48:43.630Z,97221.06
2023-04-22T06:51:10.367Z,97221.75
2023-04-22T06:53:36.921Z,97224.38
2023-04-22T06:56:03.525Z,97227.50
2023-04-22T06:58:30.093Z,97221.84
2023-04-22T07:00:56.710Z,97227.97
2023-04-22T07:03:23.509Z,97216.09
2023-04-22T07:05:50.331Z,97213.88
2023-04-22T07:08:16.949Z,97218.47
2023-04-22T07:10:43.734Z,97220.13
2023-04-22T07:13:10.330Z,97210.84
2023-04-22T07:15:36.896Z,97206.22
2023-04-22T07:18:03.518Z,97199.88
2023-04-22T07:20:30.170Z,97196.03
2023-04-22T07:22:56.777Z,97200.97
2023-04-22T07:25:23.385Z,97188.19
2023-04-22T07:27:50.014Z,97193.19
2023-04-22T07:30:16.604Z,97193.69
2023-04-22T07:32:43.225Z,97191.91
2023-04-22T07:35:09.928Z,97190.94
2023-04-22T07:37:36.525Z,97189.84
2023-04-22T07:40:03.114Z,97192.25
2023-04-22T07:42:29.662Z,97195.28
2023-04-22T07:44:56.259Z,97190.25
2023-04-22T07:47:22.864Z,97192.59
2023-04-22T07:49:49.557Z,97182.28
2023-04-22T07:52:16.110Z,97185.53
2023-04-22T07:54:42.716Z,97184.59
2023-04-22T07:57:09.295Z,97183.22
2023-04-22T07:59:35.870Z,97193.94
2023-04-22T08:02:02.580Z,97189.97
2023-04-22T08:04:29.596Z,97192.50
2023-04-22T08:06:56.338Z,97187.78
2023-04-22T08:09:22.939Z,97186.16
2023-04-22T08:11:49.510Z,97181.16
2023-04-22T08:14:16.093Z,97186.94
2023-04-22T08:16:42.684Z,97186.25
2023-04-22T08:19:09.316Z,97187.56
2023-04-22T08:21:35.962Z,97178.09
2023-04-22T08:24:02.554Z,97185.63
2023-04-22T08:26:29.158Z,97181.88
2023-04-22T08:28:55.798Z,97186.38
2023-04-22T08:31:22.406Z,97182.50
2023-04-22T08:33:49.034Z,97181.19
2023-04-22T08:36:15.586Z,97188.94
2023-04-22T08:41:08.769Z,97181.03
2023-04-22T08:43:35.504Z,97174.41
2023-04-22T08:46:02.094Z,97171.91
2023-04-22T08:48:28.964Z,97182.97
2023-04-22T08:50:55.518Z,97172.50
2023-04-22T08:53:24.340Z,97176.47
2023-04-22T08:55:51.363Z,97170.28
2023-04-22T08:58:17.933Z,97169.50
2023-04-22T09:00:45.145Z,97165.53
2023-04-22T09:03:11.758Z,97166.06
2023-04-22T09:05:38.459Z,97174.41
2023-04-22T09:08:05.378Z,97176.00
2023-04-22T09:10:33.956Z,97169.84
2023-04-22T09:13:00.866Z,97164.50
2023-04-22T09:15:28.111Z,97161.28
2023-04-22T09:17:54.818Z,97165.25
2023-04-22T09:20:21.602Z,97161.28
2023-04-22T09:22:48.161Z,97159.56
2023-04-22T09:25:14.770Z,97168.97
2023-04-22T09:27:41.395Z,97157.25
2023-04-22T09:30:08.004Z,97159.00
2023-04-22T09:32:34.691Z,97158.31
2023-04-22T09:35:01.338Z,97149.44
2023-04-22T09:37:38.975Z,97149.69
2023-04-22T09:40:09.482Z,97149.66
2023-04-22T09:42:36.068Z,97157.75
2023-04-22T09:45:02.686Z,97144.34
2023-04-22T09:47:29.286Z,97137.66
2023-04-22T09:49:55.933Z,97139.63
2023-04-22T09:52:22.490Z,97139.31
2023-04-22T09:54:49.103Z,97140.66
2023-04-22T09:57:15.656Z,97141.25
2023-04-22T09:59:42.446Z,97132.50
2023-04-22T10:02:09.573Z,97141.41
2023-04-22T10:04:36.450Z,97128.66
2023-04-22T10:07:03.025Z,97130.81
2023-04-22T10:09:29.599Z,97125.88
2023-04-22T10:11:56.169Z,97126.47
2023-04-22T10:14:22.796Z,97121.94
2023-04-22T10:16:49.652Z,97124.19
2023-04-22T10:19:16.654Z,97120.78
2023-04-22T10:21:43.332Z,97121.84
2023-04-22T10:24:09.910Z,97117.53
2023-04-22T10:26:36.546Z,97124.56
2023-04-22T10:29:03.098Z,97110.78
2023-04-22T10:31:29.761Z,97116.97
2023-04-22T10:33:56.609Z,97107.53
2023-04-22T10:36:23.227Z,97103.53
2023-04-22T10:38:49.843Z,97103.66
2023-04-22T10:41:16.398Z,97106.47
2023-04-22T10:43:42.977Z,97107.50
2023-04-22T10:46:10.387Z,97105.09
2023-04-22T10:48:36.990Z,97103.09
2023-04-22T10:51:03.709Z,97104.22
2023-04-22T10:53:30.274Z,97101.00
2023-04-22T10:55:56.857Z,97102.38
2023-04-22T10:58:23.442Z,97088.91
2023-04-22T11:00:53.954Z,97092.53
2023-04-22T11:03:21.319Z,97088.47
2023-04-22T11:05:48.079Z,97089.78
2023-04-22T11:08:15.057Z,97094.69
2023-04-22T11:10:43.595Z,97085.53
2023-04-22T11:13:10.528Z,97088.25
2023-04-22T11:15:37.102Z,97089.16
2023-04-22T11:18:03.727Z,97082.38
2023-04-22T11:20:30.346Z,97078.78
2023-04-22T11:22:56.919Z,97083.19
2023-04-22T11:25:23.506Z,97081.63
2023-04-22T11:27:50.121Z,97072.91
2023-04-22T11:30:16.694Z,97068.41
2023-04-22T11:32:43.344Z,97069.13
2023-04-22T11:35:09.979Z,97070.72
2023-04-22T11:37:36.544Z,97062.31
2023-04-22T11:40:21.717Z,97062.31
2023-04-22T11:42:49.773Z,97064.75
2023-04-22T11:45:16.411Z,97071.06
2023-04-22T11:47:43.064Z,97071.88
2023-04-22T11:50:09.653Z,97068.47
2023-04-22T11:52:36.309Z,97071.38
2023-04-22T11:55:02.991Z,97073.31
2023-04-22T11:57:29.913Z,97068.59
2023-04-22T11:59:57.396Z,97063.56
2023-04-22T12:02:24.121Z,97062.63
2023-04-22T12:04:50.800Z,97054.34
2023-04-22T12:07:17.466Z,97061.41
2023-04-22T12:09:43.976Z,97057.16
2023-04-22T12:12:10.788Z,97049.06
2023-04-22T12:14:37.413Z,97059.81
2023-04-22T12:17:04.154Z,97047.75
2023-04-22T12:19:30.801Z,97043.72
2023-04-22T12:21:57.393Z,97044.66
2023-04-22T12:24:23.943Z,97039.44
2023-04-22T12:26:50.552Z,97045.38
2023-04-22T12:29:17.140Z,97033.88
2023-04-22T12:31:43.823Z,97038.63
2023-04-22T12:34:10.539Z,97033.72
2023-04-22T12:36:37.145Z,97037.09
2023-04-22T12:39:04.585Z,97030.34
2023-04-22T12:41:31.168Z,97033.06
2023-04-22T12:43:57.851Z,97030.19
2023-04-22T12:46:24.495Z,97019.28
2023-04-22T12:48:51.153Z,97028.41
2023-04-22T12:51:17.750Z,97024.13
2023-04-22T12:53:44.322Z,97027.50
2023-04-22T12:56:10.950Z,97025.22
2023-04-22T12:58:37.522Z,97012.22
2023-04-22T13:01:04.267Z,97013.94
2023-04-22T13:03:31.101Z,97015.28
2023-04-22T13:05:57.798Z,97006.81
2023-04-22T13:08:24.483Z,97006.59
2023-04-22T13:10:51.216Z,97007.72
2023-04-22T13:13:19.373Z,96999.91
2023-04-22T13:15:46.281Z,97001.19
2023-04-22T13:18:12.891Z,96989.72
2023-04-22T13:20:39.588Z,97002.75
2023-04-22T13:23:06.184Z,96989.06
2023-04-22T13:25:32.779Z,96995.69
2023-04-22T13:27:59.403Z,96985.59
2023-04-22T13:30:26.021Z,96979.47
2023-04-22T13:32:52.764Z,96978.97
2023-04-22T13:35:19.372Z,96971.38
2023-04-22T13:37:46.130Z,96965.34
2023-04-22T13:40:12.956Z,96976.41
2023-04-22T13:42:39.807Z,96963.84
2023-04-22T13:45:06.427Z,96959.94
2023-04-22T13:47:33.162Z,96959.84
2023-04-22T13:49:59.796Z,96961.94
2023-04-22T13:52:26.422Z,96951.00
2023-04-22T13:54:53.327Z,96960.31
2023-04-22T13:57:19.941Z,96960.09
2023-04-22T13:59:46.538Z,96949.63
2023-04-22T14:02:13.140Z,96946.78
2023-04-22T14:04:39.761Z,96953.00
2023-04-22T14:07:06.322Z,96952.59
2023-04-22T14:09:32.986Z,96944.06
2023-04-22T14:12:00.207Z,96948.47
2023-04-22T14:14:26.795Z,96943.53
2023-04-22T14:16:53.439Z,96943.00
2023-04-22T14:19:20.078Z,96934.88
2023-04-22T14:21:46.689Z,96936.38
2023-04-22T14:24:13.293Z,96925.00
2023-04-22T14:26:40.007Z,96933.94
2023-04-22T14:29:06.584Z,96935.19
2023-04-22T14:31:33.219Z,96920.72
2023-04-22T14:33:59.838Z,96923.25
2023-04-22T14:36:26.398Z,96926.47
2023-04-22T14:38:53.037Z,96926.47
2023-04-22T14:41:19.653Z,96920.22
2023-04-22T14:43:46.238Z,96924.69
2023-04-22T14:46:12.993Z,96922.56
2023-04-22T14:48:39.766Z,96922.91
2023-04-22T14:51:06.378Z,96914.75
2023-04-22T14:53:32.957Z,96915.41
2023-04-22T14:55:59.601Z,96912.91
2023-04-22T14:58:26.168Z,96912.81
2023-04-22T15:00:52.784Z,96905.75
2023-04-22T15:03:19.472Z,96908.59
2023-04-22T15:05:46.190Z,96907.66
2023-04-22T15:08:12.789Z,96906.88
2023-04-22T15:10:39.393Z,96897.59
2023-04-22T15:13:06.260Z,96901.47
2023-04-22T15:15:32.876Z,96901.03
2023-04-22T15:17:59.547Z,96909.63
2023-04-22T15:20:26.190Z,96912.69
2023-04-22T15:22:52.769Z,96915.06
2023-04-22T15:25:19.343Z,96903.84
2023-04-22T15:27:45.941Z,96908.25
2023-04-22T15:30:12.662Z,96904.75
2023-04-22T15:32:39.385Z,96904.00
2023-04-22T15:35:06.078Z,96897.88
2023-04-22T15:37:32.737Z,96902.50
2023-04-22T15:39:59.345Z,96904.63
2023-04-22T15:42:25.978Z,96907.00
2023-04-22T15:44:52.703Z,96893.78
2023-04-22T15:47:19.380Z,96901.47
2023-04-22T15:49:46.012Z,96904.09
2023-04-22T15:52:13.535Z,96900.66
2023-04-22T15:54:40.559Z,96906.97
2023-04-22T15:57:07.123Z,96909.25
2023-04-22T15:59:33.700Z,96906.03
2023-04-22T16:02:00.376Z,96909.25
2023-04-22T16:04:27.269Z,96904.38
2023-04-22T16:06:54.151Z,96906.38
2023-04-22T16:09:20.709Z,96908.03
2023-04-22T16:11:47.314Z,96904.72
2023-04-22T16:14:13.927Z,96897.34
2023-04-22T16:16:40.598Z,96905.63
2023-04-22T16:19:07.203Z,96894.91
2023-04-22T16:21:33.832Z,96901.50
2023-04-22T16:24:00.481Z,96899.78
2023-04-22T16:26:27.143Z,96903.25
2023-04-22T16:28:53.719Z,96907.69
2023-04-22T16:31:20.368Z,96903.81
2023-04-22T16:33:47.019Z,96893.19
2023-04-22T16:36:13.610Z,96898.47
2023-04-22T16:38:40.213Z,96903.91
2023-04-22T16:41:06.914Z,96903.84
2023-04-22T16:43:33.522Z,96908.75
2023-04-22T16:46:00.323Z,96900.03
2023-04-22T16:48:26.942Z,96911.72
2023-04-22T16:50:53.782Z,96906.13
2023-04-22T16:53:20.380Z,96909.44
2023-04-22T16:55:46.965Z,96909.28
2023-04-22T16:58:13.629Z,96914.44
2023-04-22T17:00:40.238Z,96914.81
2023-04-22T17:03:07.022Z,96915.09
2023-04-22T17:05:34.474Z,96917.13
2023-04-22T17:08:01.089Z,96908.59
2023-04-22T17:10:27.657Z,96901.53
2023-04-22T17:12:54.256Z,96910.03
2023-04-22T17:15:20.836Z,96909.59
2023-04-22T17:17:47.493Z,96911.13
2023-04-22T17:20:14.191Z,96918.25
2023-04-22T17:22:40.774Z,96911.94
2023-04-22T17:25:07.383Z,96913.06
2023-04-22T17:27:33.982Z,96912.81
2023-04-22T17:30:00.600Z,96907.94
2023-04-22T17:32:27.248Z,96902.56
2023-04-22T17:34:53.875Z,96907.38
2023-04-22T17:37:20.462Z,96912.22
2023-04-22T17:39:47.044Z,96906.28
2023-04-22T17:42:14.477Z,96906.47
2023-04-22T17:44:41.486Z,96912.03
2023-04-22T17:47:08.418Z,96916.03
2023-04-22T17:49:35.043Z,96914.69
2023-04-22T17:52:01.703Z,96917.72
2023-04-22T17:54:28.301Z,96922.28
2023-04-22T17:56:55.424Z,96926.88
2023-04-22T17:59:22.128Z,96929.56
2023-04-22T18:01:48.816Z,96938.47
2023-04-22T18:04:16.545Z,96932.34
2023-04-22T18:06:43.340Z,96939.31
2023-04-22T18:09:09.992Z,96936.91
2023-04-22T18:11:36.613Z,96937.44
2023-04-22T18:14:03.252Z,96944.13
2023-04-22T18:16:29.893Z,96943.06
2023-04-22T18:18:56.780Z,96950.00
2023-04-22T18:21:23.365Z,96947.03
2023-04-22T18:23:49.999Z,96951.06
2023-04-22T18:26:16.667Z,96960.66
2023-04-22T18:28:43.268Z,96959.81
2023-04-22T18:31:09.886Z,96958.19
2023-04-22T18:33:36.622Z,96963.97
2023-04-22T18:36:03.205Z,96964.31
2023-04-22T18:38:29.774Z,96976.53
2023-04-22T18:40:56.406Z,96973.78
2023-04-22T18:43:23.029Z,96974.78
2023-04-22T18:45:49.665Z,96984.97
2023-04-22T18:48:16.451Z,96978.47
2023-04-22T18:50:43.067Z,96979.78
2023-04-22T18:53:09.670Z,96987.72
2023-04-22T18:55:36.237Z,96986.69
2023-04-22T18:58:02.830Z,96988.22
2023-04-22T19:00:29.393Z,96995.88
2023-04-22T19:02:56.087Z,96996.34
2023-04-22T19:05:22.686Z,96995.72
2023-04-22T19:07:49.307Z,96996.72
2023-04-22T19:10:15.875Z,96992.56
2023-04-22T19:12:42.579Z,96995.16
2023-04-22T19:15:09.159Z,97008.38
2023-04-22T19:17:35.912Z,97005.06
2023-04-22T19:20:02.622Z,97004.75
2023-04-22T19:22:29.319Z,97005.63
2023-04-22T19:24:55.918Z,97007.34
2023-04-22T19:27:22.514Z,97005.69
2023-04-22T19:29:49.032Z,97010.88
2023-04-22T19:32:15.643Z,97016.09
2023-04-22T19:34:42.228Z,97017.75
2023-04-22T19:37:08.822Z,97012.56
2023-04-22T19:39:35.404Z,97019.63
2023-04-22T19:42:02.459Z,97022.19
2023-04-22T19:44:29.008Z,97018.75
2023-04-22T19:46:55.630Z,97014.97
2023-04-22T19:49:22.252Z,97010.16
2023-04-22T19:51:48.917Z,97014.66
2023-04-22T19:54:15.489Z,97020.00
2023-04-22T19:56:42.079Z,97010.88
2023-04-22T19:59:08.655Z,97014.97
2023-04-22T20:01:35.317Z,97009.56
2023-04-22T20:04:01.939Z,97014.81
2023-04-22T20:06:28.612Z,97008.38
2023-04-22T20:08:55.255Z,97005.78
2023-04-22T20:11:23.897Z,97023.28
2023-04-22T20:13:50.477Z,97020.44
2023-04-22T20:16:17.128Z,97022.69
2023-04-22T20:18:43.804Z,97016.00
2023-04-22T20:21:10.420Z,97017.22
2023-04-22T20:23:37.101Z,97014.53
2023-04-22T20:26:03.697Z,97018.50
2023-04-22T20:28:30.297Z,97020.63
2023-04-22T20:30:56.849Z,97020.50
2023-04-22T20:33:23.587Z,97019.38
2023-04-22T20:35:50.386Z,97017.09
2023-04-22T20:38:16.950Z,97018.56
2023-04-22T20:40:43.559Z,97013.91
2023-04-22T20:43:10.112Z,97014.16
2023-04-22T20:45:36.711Z,97016.72
2023-04-22T20:48:03.414Z,97015.09
2023-04-22T20:50:30.076Z,97009.28
2023-04-22T20:52:56.714Z,97021.34
2023-04-22T20:55:23.296Z,97011.88
2023-04-22T20:57:49.957Z,97020.69
2023-04-22T21:00:16.559Z,97016.31
2023-04-22T21:02:43.275Z,97018.06
2023-04-22T21:05:09.949Z,97013.41
2023-04-22T21:07:36.606Z,97016.34
2023-04-22T21:10:03.192Z,97028.69
2023-04-22T21:12:29.896Z,97019.66
2023-04-22T21:14:56.452Z,97024.84
2023-04-22T21:17:23.210Z,97021.63
2023-04-22T21:19:49.983Z,97028.91
2023-04-22T21:22:16.551Z,97034.53
2023-04-22T21:24:43.532Z,97037.09
2023-04-22T21:27:10.255Z,97037.91
2023-04-22T21:29:36.898Z,97035.25
2023-04-22T21:32:09.342Z,97042.72
2023-04-22T21:34:36.697Z,97038.56
2023-04-22T21:37:03.277Z,97041.47
2023-04-22T21:39:29.928Z,97038.22
2023-04-22T21:41:57.559Z,97048.38
2023-04-22T21:44:24.214Z,97037.88
2023-04-22T21:46:50.794Z,97048.94
2023-04-22T21:49:17.381Z,97041.84
2023-04-22T21:51:43.971Z,97038.50
2023-04-22T21:54:10.601Z,97047.75
2023-04-22T21:56:37.161Z,97042.06
2023-04-22T21:59:03.745Z,97044.69
2023-04-22T22:01:30.423Z,97041.47
2023-04-22T22:03:57.381Z,97043.00
2023-04-22T22:06:24.164Z,97045.28
2023-04-22T22:08:50.792Z,97039.09
2023-04-22T22:11:27.555Z,97042.88
2023-04-22T22:13:57.207Z,97038.84
2023-04-22T22:16:23.917Z,97037.59
2023-04-22T22:18:50.522Z,97030.84
2023-04-22T22:21:17.151Z,97031.34
2023-04-22T22:23:43.755Z,97032.84
2023-04-22T22:26:10.473Z,97032.41
2023-04-22T22:28:38.107Z,97031.94
2023-04-22T22:31:04.757Z,97033.34
2023-04-22T22:33:31.387Z,97016.03
2023-04-22T22:35:58.090Z,97025.84
2023-04-22T22:38:24.732Z,97027.88
2023-04-22T22:40:51.313Z,97026.25
2023-04-22T22:43:17.873Z,97031.25
2023-04-22T22:45:44.631Z,97024.84
2023-04-22T22:48:11.254Z,97019.66
2023-04-22T22:50:37.977Z,97029.09
2023-04-22T22:53:04.580Z,97025.06
2023-04-22T22:55:31.151Z,97029.34
2023-04-22T22:57:57.924Z,97034.78
2023-04-22T23:00:24.560Z,97031.56
2023-04-22T23:02:51.319Z,97025.38
2023-04-22T23:05:18.162Z,97029.25
2023-04-22T23:07:44.749Z,97039.03
2023-04-22T23:10:11.336Z,97029.66
2023-04-22T23:12:38.083Z,97032.44
2023-04-22T23:15:04.687Z,97026.03
2023-04-22T23:17:31.277Z,97029.94
2023-04-22T23:19:57.887Z,97031.19
2023-04-22T23:22:24.475Z,97027.31
2023-04-22T23:24:51.068Z,97028.47
2023-04-22T23:27:17.659Z,97018.31
2023-04-22T23:29:44.313Z,97022.38
2023-04-22T23:32:10.922Z,97018.84
2023-04-22T23:34:37.518Z,97018.69
2023-04-22T23:37:04.111Z,97017.28
2023-04-22T23:39:30.671Z,97012.69
2023-04-22T23:41:57.287Z,97013.72
2023-04-22T23:44:23.838Z,97011.00
2023-04-22T23:46:50.462Z,97008.25
2023-04-22T23:49:17.093Z,97004.72
2023-04-22T23:51:43.729Z,97004.38
2023-04-22T23:54:10.320Z,97000.72
2023-04-22T23:56:36.890Z,97008.94
2023-04-22T23:59:03.511Z,96997.16
